Time;durP1;ratioP1;P1;durP2;ratioP2;P2;SDS_P1;SDS_P2;PMS_P1;PMS_P2;Temp;Humidity;BMP_temperature;BMP_pressure;BME280_temperature;BME280_humidity;BME280_pressure;Samples;Min_cycle;Max_cycle;Signal;HPM_P1;HPM_P2
2023/01/20 00:01:45;;;;;;;31.10;17.75;;;;;;;;;;5076186;28;20477;-47
2023/01/20 00:04:11;;;;;;;30.95;18.58;;;;;;;;;;5069234;28;20174;-49
2023/01/20 00:06:37;;;;;;;34.43;19.00;;;;;;;;;;5079643;28;20174;-48
2023/01/20 00:09:03;;;;;;;41.57;18.73;;;;;;;;;;5076180;28;20436;-48
2023/01/20 00:11:29;;;;;;;39.70;18.05;;;;;;;;;;5080227;28;20986;-47
2023/01/20 00:13:56;;;;;;;38.22;19.10;;;;;;;;;;5076494;28;20193;-50
2023/01/20 00:16:23;;;;;;;29.73;16.60;;;;;;;;;;5074787;28;20186;-47
2023/01/20 00:18:49;;;;;;;41.53;18.90;;;;;;;;;;5071106;28;20276;-48
2023/01/20 00:21:15;;;;;;;32.85;16.63;;;;;;;;;;5079299;28;20289;-49
2023/01/20 00:23:42;;;;;;;31.85;17.00;;;;;;;;;;5074852;28;20546;-47
2023/01/20 00:26:09;;;;;;;31.20;17.35;;;;;;;;;;5074620;28;20171;-50
2023/01/20 00:28:35;;;;;;;37.85;19.63;;;;;;;;;;5074466;28;20194;-48
2023/01/20 00:31:15;;;;;;;33.17;19.48;;;;;;;;;;5074418;28;20178;-47
2023/01/20 00:33:41;;;;;;;31.75;16.33;;;;;;;;;;5076083;28;20672;-48
2023/01/20 00:36:08;;;;;;;35.23;17.87;;;;;;;;;;5075557;28;20221;-49
2023/01/20 00:38:34;;;;;;;34.03;16.75;;;;;;;;;;5078830;28;20462;-47
2023/01/20 00:41:00;;;;;;;30.50;15.63;;;;;;;;;;5082004;28;20653;-48
2023/01/20 00:43:26;;;;;;;35.17;18.10;;;;;;;;;;5074348;28;20175;-47
2023/01/20 00:45:52;;;;;;;33.75;17.85;;;;;;;;;;5073675;28;20409;-47
2023/01/20 00:48:18;;;;;;;39.77;17.47;;;;;;;;;;5078435;28;20232;-49
2023/01/20 00:50:44;;;;;;;37.57;19.40;;;;;;;;;;5073903;28;20444;-50
2023/01/20 00:53:10;;;;;;;33.30;18.70;;;;;;;;;;5067699;28;20417;-47
2023/01/20 00:55:36;;;;;;;32.07;18.77;;;;;;;;;;5077047;28;20412;-49
2023/01/20 00:58:01;;;;;;;40.83;19.13;;;;;;;;;;5072713;28;20512;-50
2023/01/20 01:00:27;;;;;;;37.00;19.00;;;;;;;;;;5074486;28;20424;-49
2023/01/20 01:02:53;;;;;;;36.60;20.10;;;;;;;;;;5078216;28;20440;-47
2023/01/20 01:05:19;;;;;;;34.53;17.87;;;;;;;;;;5076403;28;20408;-48
2023/01/20 01:07:45;;;;;;;53.23;21.73;;;;;;;;;;5077422;28;20445;-49
2023/01/20 01:10:11;;;;;;;37.80;19.20;;;;;;;;;;5073626;28;20433;-50
2023/01/20 01:12:37;;;;;;;42.20;20.50;;;;;;;;;;5075481;28;20412;-49
2023/01/20 01:15:03;;;;;;;47.43;20.67;;;;;;;;;;5074274;28;20419;-47
2023/01/20 01:17:29;;;;;;;43.05;20.33;;;;;;;;;;5073502;28;20963;-50
2023/01/20 01:19:55;;;;;;;59.40;22.10;;;;;;;;;;5078903;28;20206;-48
2023/01/20 01:22:21;;;;;;;46.20;20.97;;;;;;;;;;5073491;28;20405;-50
2023/01/20 01:24:47;;;;;;;40.95;19.45;;;;;;;;;;5073368;28;20414;-47
2023/01/20 01:27:13;;;;;;;45.28;22.90;;;;;;;;;;5073300;28;20706;-48
2023/01/20 01:29:40;;;;;;;43.35;21.85;;;;;;;;;;5077023;28;20190;-46
2023/01/20 01:32:06;;;;;;;38.88;19.85;;;;;;;;;;5074533;28;20166;-48
2023/01/20 01:34:32;;;;;;;37.15;18.17;;;;;;;;;;5078476;28;20213;-47
2023/01/20 01:36:57;;;;;;;43.75;19.90;;;;;;;;;;5080722;28;20201;-49
2023/01/20 01:39:24;;;;;;;42.60;21.50;;;;;;;;;;5072868;28;20241;-47
2023/01/20 01:41:49;;;;;;;43.10;20.77;;;;;;;;;;5075619;28;20405;-49
2023/01/20 01:44:16;;;;;;;44.53;22.70;;;;;;;;;;5077752;28;20185;-47
2023/01/20 01:46:42;;;;;;;50.00;20.48;;;;;;;;;;5082312;28;20417;-49
2023/01/20 01:49:28;;;;;;;43.15;19.80;;;;;;;;;;5073591;28;20212;-47
2023/01/20 01:51:57;;;;;;;40.25;17.52;;;;;;;;;;5072907;28;20194;-47
2023/01/20 01:54:25;;;;;;;44.53;21.10;;;;;;;;;;5072886;28;20205;-47
2023/01/20 01:56:51;;;;;;;50.72;22.00;;;;;;;;;;5075570;28;20546;-47
2023/01/20 01:59:18;;;;;;;46.05;22.27;;;;;;;;;;5076381;28;20203;-47
2023/01/20 02:01:49;;;;;;;46.97;19.88;;;;;;;;;;5068923;28;20185;-47
2023/01/20 02:04:16;;;;;;;38.28;18.77;;;;;;;;;;5072156;28;20170;-47
2023/01/20 02:06:45;;;;;;;39.17;19.23;;;;;;;;;;5072371;28;20181;-47
2023/01/20 02:09:11;;;;;;;41.72;19.30;;;;;;;;;;5075787;28;20202;-48
2023/01/20 02:11:51;;;;;;;37.47;20.05;;;;;;;;;;5076985;28;20199;-47
2023/01/20 02:14:18;;;;;;;39.45;19.55;;;;;;;;;;5065401;28;20177;-47
2023/01/20 02:16:47;;;;;;;45.15;19.85;;;;;;;;;;5072217;28;20680;-46
2023/01/20 02:19:16;;;;;;;37.75;18.65;;;;;;;;;;5079380;28;20210;-49
2023/01/20 02:21:45;;;;;;;47.05;19.33;;;;;;;;;;5071849;28;20182;-46
2023/01/20 02:24:25;;;;;;;45.78;20.27;;;;;;;;;;5073941;28;20170;-48
2023/01/20 02:26:57;;;;;;;51.42;21.00;;;;;;;;;;5084018;28;20165;-46
2023/01/20 02:29:46;;;;;;;43.70;20.75;;;;;;;;;;5071326;28;20206;-46
2023/01/20 02:32:22;;;;;;;38.92;19.42;;;;;;;;;;5071579;28;20186;-47
2023/01/20 02:34:48;;;;;;;45.28;18.42;;;;;;;;;;5072739;28;20178;-47
2023/01/20 02:37:37;;;;;;;44.30;21.73;;;;;;;;;;5074442;28;20550;-48
2023/01/20 02:40:12;;;;;;;40.10;20.13;;;;;;;;;;5071381;28;20464;-48
2023/01/20 02:42:41;;;;;;;43.70;18.17;;;;;;;;;;5077092;28;20173;-46
2023/01/20 02:45:19;;;;;;;43.38;19.95;;;;;;;;;;5074340;28;20174;-47
2023/01/20 02:47:50;;;;;;;45.05;21.38;;;;;;;;;;5075161;28;20190;-47
2023/01/20 02:50:20;;;;;;;41.50;21.50;;;;;;;;;;5071606;28;20190;-48
2023/01/20 02:52:49;;;;;;;41.58;20.42;;;;;;;;;;5079861;28;20237;-47
2023/01/20 02:55:21;;;;;;;38.47;18.75;;;;;;;;;;5076098;28;20215;-46
2023/01/20 02:57:54;;;;;;;33.58;17.70;;;;;;;;;;5071663;28;20530;-47
2023/01/20 03:00:22;;;;;;;50.58;20.20;;;;;;;;;;5071397;28;20311;-48
2023/01/20 03:02:50;;;;;;;48.15;17.83;;;;;;;;;;5071417;28;20190;-49
2023/01/20 03:05:21;;;;;;;40.20;19.58;;;;;;;;;;5071499;28;20253;-47
2023/01/20 03:07:49;;;;;;;37.13;17.25;;;;;;;;;;5075506;28;20189;-49
2023/01/20 03:10:16;;;;;;;34.65;17.02;;;;;;;;;;5073010;28;20247;-46
2023/01/20 03:12:46;;;;;;;38.30;18.67;;;;;;;;;;5075295;28;20384;-48
2023/01/20 03:15:12;;;;;;;33.80;18.17;;;;;;;;;;5070846;28;20586;-49
2023/01/20 03:17:38;;;;;;;36.67;17.92;;;;;;;;;;5071337;28;20256;-46
2023/01/20 03:20:04;;;;;;;32.22;15.55;;;;;;;;;;5073058;28;20277;-49
2023/01/20 03:22:31;;;;;;;38.95;18.58;;;;;;;;;;5075151;28;20542;-47
2023/01/20 03:24:58;;;;;;;33.92;16.92;;;;;;;;;;5071434;28;20178;-46
2023/01/20 03:27:25;;;;;;;41.63;18.17;;;;;;;;;;5074854;28;20237;-48
2023/01/20 03:29:51;;;;;;;40.83;18.50;;;;;;;;;;5071161;28;20191;-49
2023/01/20 03:32:18;;;;;;;44.27;18.07;;;;;;;;;;5071012;28;20174;-49
2023/01/20 03:34:44;;;;;;;43.28;20.30;;;;;;;;;;5077764;28;20419;-48
2023/01/20 03:37:11;;;;;;;41.55;19.75;;;;;;;;;;5070817;28;20182;-46
2023/01/20 03:39:38;;;;;;;36.58;17.77;;;;;;;;;;5083232;28;20209;-49
2023/01/20 03:42:07;;;;;;;36.60;18.70;;;;;;;;;;5072235;28;20210;-46
2023/01/20 03:44:52;;;;;;;36.70;16.48;;;;;;;;;;5071432;28;20205;-47
2023/01/20 03:47:26;;;;;;;32.17;18.55;;;;;;;;;;5066232;28;20185;-48
2023/01/20 03:50:03;;;;;;;38.72;19.98;;;;;;;;;;5070993;28;20197;-47
2023/01/20 03:52:36;;;;;;;32.20;17.35;;;;;;;;;;5074461;28;20181;-48
2023/01/20 03:55:09;;;;;;;40.67;19.98;;;;;;;;;;5072311;28;20703;-50
2023/01/20 03:57:38;;;;;;;36.63;17.65;;;;;;;;;;5075477;28;20166;-47
2023/01/20 04:00:06;;;;;;;36.92;17.98;;;;;;;;;;5073183;28;20712;-47
2023/01/20 04:02:33;;;;;;;41.17;20.15;;;;;;;;;;5070974;28;20190;-47
2023/01/20 04:04:59;;;;;;;38.80;19.75;;;;;;;;;;5073672;28;20166;-48
2023/01/20 04:07:26;;;;;;;36.97;18.15;;;;;;;;;;5076562;28;20177;-49
2023/01/20 04:09:54;;;;;;;37.38;16.67;;;;;;;;;;5070482;28;20207;-47
2023/01/20 04:12:20;;;;;;;35.83;16.20;;;;;;;;;;5071135;28;20648;-47
2023/01/20 04:14:46;;;;;;;33.40;14.37;;;;;;;;;;5070735;28;20175;-47
2023/01/20 04:17:12;;;;;;;30.50;15.43;;;;;;;;;;5071090;28;20413;-49
2023/01/20 04:19:38;;;;;;;38.38;16.67;;;;;;;;;;5070459;28;20280;-46
2023/01/20 04:22:12;;;;;;;28.10;15.47;;;;;;;;;;5071056;28;20652;-48
2023/01/20 04:24:37;;;;;;;33.75;16.75;;;;;;;;;;5070946;28;20792;-47
2023/01/20 04:27:04;;;;;;;31.20;16.10;;;;;;;;;;5071076;28;20173;-48
2023/01/20 04:29:29;;;;;;;24.95;14.02;;;;;;;;;;5067890;28;20501;-46
2023/01/20 04:32:02;;;;;;;31.20;15.50;;;;;;;;;;5074879;28;20570;-46
2023/01/20 04:34:28;;;;;;;35.83;15.93;;;;;;;;;;5074187;28;20427;-46
2023/01/20 04:36:54;;;;;;;32.28;15.88;;;;;;;;;;5070669;28;20184;-46
2023/01/20 04:39:20;;;;;;;25.50;14.30;;;;;;;;;;5070680;28;20212;-49
2023/01/20 04:41:47;;;;;;;34.87;15.10;;;;;;;;;;5073208;28;20408;-46
2023/01/20 04:44:13;;;;;;;27.27;15.02;;;;;;;;;;5071469;28;20467;-46
2023/01/20 04:46:38;;;;;;;23.17;13.20;;;;;;;;;;5078298;28;20174;-47
2023/01/20 04:49:04;;;;;;;24.33;12.97;;;;;;;;;;5073854;28;20443;-49
2023/01/20 04:51:31;;;;;;;23.87;11.87;;;;;;;;;;5074063;28;20414;-47
2023/01/20 04:53:58;;;;;;;23.45;13.93;;;;;;;;;;5073847;28;20932;-47
2023/01/20 04:56:24;;;;;;;25.25;13.35;;;;;;;;;;5074799;28;20174;-45
2023/01/20 04:58:50;;;;;;;26.27;13.20;;;;;;;;;;5077389;28;20676;-45
2023/01/20 05:01:16;;;;;;;32.58;13.30;;;;;;;;;;5075824;28;20261;-45
2023/01/20 05:03:42;;;;;;;27.23;12.40;;;;;;;;;;5077714;28;20642;-45
2023/01/20 05:06:11;;;;;;;23.63;12.80;;;;;;;;;;5080860;28;20400;-45
2023/01/20 05:08:37;;;;;;;24.52;12.80;;;;;;;;;;5075030;28;20792;-45
2023/01/20 05:11:03;;;;;;;28.43;11.30;;;;;;;;;;5076092;28;20185;-45
2023/01/20 05:13:29;;;;;;;24.20;11.95;;;;;;;;;;5077581;28;21031;-46
2023/01/20 05:15:56;;;;;;;21.48;11.48;;;;;;;;;;5073463;28;20692;-45
2023/01/20 05:18:22;;;;;;;26.50;11.20;;;;;;;;;;5074621;28;20665;-45
2023/01/20 05:20:48;;;;;;;20.80;11.03;;;;;;;;;;5073310;28;20178;-45
2023/01/20 05:23:15;;;;;;;26.40;11.45;;;;;;;;;;5079664;28;20400;-45
2023/01/20 05:25:41;;;;;;;23.85;12.98;;;;;;;;;;5073568;28;20179;-45
2023/01/20 05:28:07;;;;;;;23.95;12.23;;;;;;;;;;5076931;28;20673;-46
2023/01/20 05:30:34;;;;;;;26.87;12.00;;;;;;;;;;5078855;28;20222;-45
2023/01/20 05:32:59;;;;;;;32.55;13.50;;;;;;;;;;5080451;28;20397;-45
2023/01/20 05:35:25;;;;;;;20.93;10.47;;;;;;;;;;5073127;28;20543;-45
2023/01/20 05:37:53;;;;;;;23.63;12.37;;;;;;;;;;5075185;28;20408;-45
2023/01/20 05:40:19;;;;;;;25.15;12.95;;;;;;;;;;5073099;28;20537;-45
2023/01/20 05:42:45;;;;;;;22.73;11.40;;;;;;;;;;5073208;28;20186;-45
2023/01/20 05:45:11;;;;;;;21.83;11.03;;;;;;;;;;5074068;28;20894;-45
2023/01/20 05:47:37;;;;;;;21.67;12.57;;;;;;;;;;5080093;28;20420;-45
2023/01/20 05:50:03;;;;;;;22.02;11.38;;;;;;;;;;5072468;28;20759;-45
2023/01/20 05:52:29;;;;;;;21.88;12.60;;;;;;;;;;5075264;28;20542;-45
2023/01/20 05:54:55;;;;;;;22.43;12.83;;;;;;;;;;5070496;28;20254;-45
2023/01/20 05:57:25;;;;;;;27.03;13.53;;;;;;;;;;5075398;28;20420;-45
2023/01/20 05:59:51;;;;;;;25.02;11.52;;;;;;;;;;5074925;28;20543;-45
2023/01/20 06:02:18;;;;;;;22.27;12.18;;;;;;;;;;5072827;28;20181;-45
2023/01/20 06:04:46;;;;;;;24.35;12.93;;;;;;;;;;5072607;28;20245;-45
2023/01/20 06:07:13;;;;;;;23.95;12.10;;;;;;;;;;5068870;28;20183;-45
2023/01/20 06:09:39;;;;;;;26.70;13.25;;;;;;;;;;5073179;28;20604;-45
2023/01/20 06:12:05;;;;;;;33.65;16.23;;;;;;;;;;5077210;28;20410;-45
2023/01/20 06:14:31;;;;;;;26.70;14.33;;;;;;;;;;5077337;28;20184;-45
2023/01/20 06:16:57;;;;;;;26.23;14.37;;;;;;;;;;5074222;28;20923;-45
2023/01/20 06:19:23;;;;;;;29.63;15.27;;;;;;;;;;5071886;28;20959;-45
2023/01/20 06:21:49;;;;;;;36.40;16.57;;;;;;;;;;5074613;28;20445;-45
2023/01/20 06:24:15;;;;;;;25.02;13.52;;;;;;;;;;5072202;28;20419;-45
2023/01/20 06:26:41;;;;;;;30.67;14.80;;;;;;;;;;5072253;28;20174;-46
2023/01/20 06:29:07;;;;;;;34.63;15.20;;;;;;;;;;5076866;28;20433;-45
2023/01/20 06:31:33;;;;;;;33.60;16.87;;;;;;;;;;5072182;28;20447;-45
2023/01/20 06:33:59;;;;;;;34.45;16.15;;;;;;;;;;5072272;28;20912;-45
2023/01/20 06:36:25;;;;;;;33.10;15.97;;;;;;;;;;5073010;28;20198;-45
2023/01/20 06:38:51;;;;;;;35.97;16.23;;;;;;;;;;5074327;28;20844;-45
2023/01/20 06:41:18;;;;;;;39.70;15.38;;;;;;;;;;5077265;28;20451;-45
2023/01/20 06:43:44;;;;;;;46.33;15.55;;;;;;;;;;5071953;28;20707;-45
2023/01/20 06:46:11;;;;;;;29.85;16.48;;;;;;;;;;5071875;28;20177;-46
2023/01/20 06:48:38;;;;;;;35.47;15.80;;;;;;;;;;5073629;28;20324;-45
2023/01/20 06:51:09;;;;;;;33.90;16.33;;;;;;;;;;5071522;28;20256;-45
2023/01/20 06:53:35;;;;;;;36.65;15.07;;;;;;;;;;5075896;28;20738;-45
2023/01/20 06:56:01;;;;;;;41.70;16.63;;;;;;;;;;5073020;28;20253;-45
2023/01/20 06:58:29;;;;;;;36.88;15.43;;;;;;;;;;5077321;28;20548;-45
2023/01/20 07:00:55;;;;;;;34.28;16.20;;;;;;;;;;5071079;28;20807;-45
2023/01/20 07:03:21;;;;;;;39.50;15.27;;;;;;;;;;5073673;28;20213;-45
2023/01/20 07:05:56;;;;;;;31.77;15.10;;;;;;;;;;5074505;28;20397;-45
2023/01/20 07:08:22;;;;;;;27.45;14.20;;;;;;;;;;5075981;28;20219;-45
2023/01/20 07:10:48;;;;;;;27.70;14.07;;;;;;;;;;5078209;28;20181;-45
2023/01/20 07:13:13;;;;;;;32.00;15.17;;;;;;;;;;5073552;28;20931;-45
2023/01/20 07:15:39;;;;;;;26.20;13.30;;;;;;;;;;5072800;28;20435;-45
2023/01/20 07:18:05;;;;;;;27.40;13.30;;;;;;;;;;5071712;28;20401;-45
2023/01/20 07:20:31;;;;;;;26.30;12.10;;;;;;;;;;5074707;28;20433;-45
2023/01/20 07:23:01;;;;;;;25.13;13.93;;;;;;;;;;5071404;28;20405;-45
2023/01/20 07:25:26;;;;;;;27.17;14.82;;;;;;;;;;5071438;28;20408;-45
2023/01/20 07:27:53;;;;;;;32.83;14.80;;;;;;;;;;5071120;28;20174;-45
2023/01/20 07:30:19;;;;;;;31.73;13.80;;;;;;;;;;5066075;28;20452;-45
2023/01/20 07:32:45;;;;;;;30.27;15.35;;;;;;;;;;5085974;28;20173;-45
2023/01/20 07:35:11;;;;;;;34.00;13.85;;;;;;;;;;5071460;28;20261;-45
2023/01/20 07:37:36;;;;;;;19.17;12.03;;;;;;;;;;5071115;28;20262;-45
2023/01/20 07:40:02;;;;;;;29.10;14.90;;;;;;;;;;5070634;28;20605;-45
2023/01/20 07:42:28;;;;;;;28.45;13.15;;;;;;;;;;5075321;28;20411;-45
2023/01/20 07:44:54;;;;;;;30.20;13.00;;;;;;;;;;5077100;28;20172;-45
2023/01/20 07:47:20;;;;;;;30.43;13.00;;;;;;;;;;5071053;28;20408;-45
2023/01/20 07:49:46;;;;;;;24.97;13.63;;;;;;;;;;5071703;28;20433;-45
2023/01/20 07:52:12;;;;;;;30.67;14.80;;;;;;;;;;5071650;28;20416;-45
2023/01/20 07:54:38;;;;;;;25.60;14.50;;;;;;;;;;5074424;28;20503;-45
2023/01/20 07:57:04;;;;;;;27.27;14.80;;;;;;;;;;5071597;28;20423;-45
2023/01/20 07:59:30;;;;;;;28.70;15.30;;;;;;;;;;5076110;28;20467;-45
2023/01/20 08:01:56;;;;;;;28.90;15.70;;;;;;;;;;5078446;28;20201;-45
2023/01/20 08:04:22;;;;;;;28.90;14.40;;;;;;;;;;5070950;28;20939;-45
2023/01/20 08:06:48;;;;;;;32.73;15.83;;;;;;;;;;5073359;28;20765;-45
2023/01/20 08:09:14;;;;;;;29.25;14.43;;;;;;;;;;5074567;28;20432;-45
2023/01/20 08:11:40;;;;;;;33.67;15.85;;;;;;;;;;5070828;28;20179;-45
2023/01/20 08:14:07;;;;;;;30.80;15.43;;;;;;;;;;5073100;28;20351;-45
2023/01/20 08:16:32;;;;;;;23.30;13.60;;;;;;;;;;5071803;28;20189;-45
2023/01/20 08:18:58;;;;;;;25.93;13.97;;;;;;;;;;5072548;28;20990;-45
2023/01/20 08:21:29;;;;;;;25.70;13.70;;;;;;;;;;5076766;28;20409;-45
2023/01/20 08:23:55;;;;;;;28.67;15.15;;;;;;;;;;5074497;28;20413;-45
2023/01/20 08:26:23;;;;;;;25.50;13.50;;;;;;;;;;5079075;28;20174;-45
2023/01/20 08:28:50;;;;;;;22.77;13.80;;;;;;;;;;5078603;28;20234;-45
2023/01/20 08:31:17;;;;;;;26.73;14.27;;;;;;;;;;5074918;28;20178;-45
2023/01/20 08:33:43;;;;;;;22.23;13.30;;;;;;;;;;5076763;28;20170;-45
2023/01/20 08:36:11;;;;;;;32.67;13.38;;;;;;;;;;5069924;28;20174;-45
2023/01/20 08:38:37;;;;;;;27.70;15.13;;;;;;;;;;5073797;28;20202;-45
2023/01/20 08:41:10;;;;;;;25.17;14.32;;;;;;;;;;5076741;28;20228;-45
2023/01/20 08:43:36;;;;;;;30.67;14.55;;;;;;;;;;5081433;28;20653;-46
2023/01/20 08:46:04;;;;;;;31.13;14.48;;;;;;;;;;5074257;28;20186;-45
2023/01/20 08:48:30;;;;;;;25.70;14.00;;;;;;;;;;5076008;28;20755;-45
2023/01/20 08:50:55;;;;;;;26.53;14.70;;;;;;;;;;5077627;28;20215;-45
2023/01/20 08:53:21;;;;;;;27.80;14.37;;;;;;;;;;5074786;28;20404;-46
2023/01/20 08:55:57;;;;;;;29.53;16.73;;;;;;;;;;5076927;28;20412;-45
2023/01/20 08:58:23;;;;;;;28.20;14.40;;;;;;;;;;5066097;28;20408;-45
2023/01/20 09:00:49;;;;;;;22.05;13.10;;;;;;;;;;5074026;28;20177;-45
2023/01/20 09:03:15;;;;;;;22.57;12.40;;;;;;;;;;5074026;28;20175;-45
2023/01/20 09:05:41;;;;;;;26.77;13.33;;;;;;;;;;5075896;28;20405;-45
2023/01/20 09:08:07;;;;;;;18.70;12.33;;;;;;;;;;5078813;28;20405;-45
2023/01/20 09:10:33;;;;;;;19.63;11.77;;;;;;;;;;5079094;28;20510;-45
2023/01/20 09:12:59;;;;;;;16.50;11.40;;;;;;;;;;5074458;28;20409;-45
2023/01/20 09:15:25;;;;;;;23.13;12.17;;;;;;;;;;5078035;28;20182;-45
2023/01/20 09:17:51;;;;;;;14.93;10.30;;;;;;;;;;5073411;28;20412;-46
2023/01/20 09:20:17;;;;;;;16.10;10.30;;;;;;;;;;5072910;28;20208;-45
2023/01/20 09:22:43;;;;;;;17.20;10.98;;;;;;;;;;5073421;28;20412;-45
2023/01/20 09:25:10;;;;;;;14.90;10.03;;;;;;;;;;5076478;28;20175;-45
2023/01/20 09:27:35;;;;;;;19.57;10.60;;;;;;;;;;5077731;28;20552;-45
2023/01/20 09:30:02;;;;;;;20.27;11.27;;;;;;;;;;5073420;28;20841;-46
2023/01/20 09:32:28;;;;;;;18.30;11.83;;;;;;;;;;5073462;28;20397;-46
2023/01/20 09:34:55;;;;;;;15.70;10.23;;;;;;;;;;5081411;28;20942;-45
2023/01/20 09:45:52;;;;;;;18.05;10.68;;;;;;;;;;5051710;28;20213;-45
2023/01/20 09:54:18;;;;;;;20.77;11.07;;;;;;;;;;5071569;28;20186;-45
2023/01/20 09:56:46;;;;;;;22.02;11.10;;;;;;;;;;5077776;28;20209;-45
2023/01/20 09:59:15;;;;;;;18.05;11.27;;;;;;;;;;5079238;28;20866;-45
2023/01/20 10:01:50;;;;;;;16.83;10.65;;;;;;;;;;5080578;28;20641;-45
2023/01/20 10:04:52;;;;;;;16.83;10.50;;;;;;;;;;5066815;28;20178;-45
2023/01/20 10:07:36;;;;;;;21.27;12.07;;;;;;;;;;4984869;28;20177;-45
2023/01/20 10:10:08;;;;;;;18.75;11.43;;;;;;;;;;5062984;28;20573;-45
2023/01/20 10:12:40;;;;;;;22.55;11.18;;;;;;;;;;5072586;28;20185;-45
2023/01/20 10:15:12;;;;;;;21.98;10.13;;;;;;;;;;5070895;28;20265;-45
2023/01/20 10:17:39;;;;;;;14.63;10.40;;;;;;;;;;5072558;28;20253;-45
2023/01/20 10:20:08;;;;;;;19.92;9.38;;;;;;;;;;5071934;28;20226;-45
2023/01/20 10:22:41;;;;;;;19.30;10.20;;;;;;;;;;5076903;28;20252;-45
2023/01/20 10:25:11;;;;;;;18.05;9.45;;;;;;;;;;5091976;28;20255;-44
2023/01/20 10:27:41;;;;;;;13.88;8.73;;;;;;;;;;5085608;28;20597;-45
2023/01/20 10:30:11;;;;;;;16.20;9.98;;;;;;;;;;5092203;28;20209;-44
2023/01/20 10:32:38;;;;;;;12.50;8.10;;;;;;;;;;5068655;28;20181;-45
2023/01/20 10:35:11;;;;;;;15.23;8.98;;;;;;;;;;5092490;28;20246;-44
2023/01/20 10:37:37;;;;;;;11.75;8.18;;;;;;;;;;5059316;28;20189;-45
2023/01/20 10:40:07;;;;;;;13.07;8.53;;;;;;;;;;5092052;28;20242;-45
2023/01/20 10:42:33;;;;;;;15.03;9.30;;;;;;;;;;5071592;28;20404;-44
2023/01/20 10:44:59;;;;;;;14.40;7.70;;;;;;;;;;5072122;28;20419;-45
2023/01/20 10:47:28;;;;;;;12.80;7.33;;;;;;;;;;5087393;28;20445;-45
2023/01/20 10:49:55;;;;;;;14.17;7.80;;;;;;;;;;5091626;28;20431;-45
2023/01/20 10:52:39;;;;;;;9.70;7.73;;;;;;;;;;5084036;28;20415;-45
2023/01/20 10:55:14;;;;;;;12.67;8.87;;;;;;;;;;5092849;28;20464;-49
2023/01/20 10:57:41;;;;;;;8.77;7.20;;;;;;;;;;5079298;28;20403;-46
2023/01/20 11:00:16;;;;;;;9.97;6.73;;;;;;;;;;5091586;28;20548;-46
2023/01/20 11:02:43;;;;;;;10.93;7.00;;;;;;;;;;5074615;28;20779;-48
2023/01/20 11:05:15;;;;;;;8.90;6.40;;;;;;;;;;5092090;28;20403;-49
2023/01/20 11:07:42;;;;;;;11.30;7.27;;;;;;;;;;5072463;28;20414;-46
2023/01/20 11:10:14;;;;;;;8.13;6.83;;;;;;;;;;5089253;28;20939;-47
2023/01/20 11:12:42;;;;;;;11.20;6.90;;;;;;;;;;5088469;28;20412;-48
2023/01/20 11:15:16;;;;;;;13.23;7.60;;;;;;;;;;5091588;28;20188;-47
2023/01/20 11:17:42;;;;;;;10.85;7.80;;;;;;;;;;5083548;28;20785;-46
2023/01/20 11:20:14;;;;;;;9.80;7.37;;;;;;;;;;5091417;28;20205;-46
2023/01/20 11:22:44;;;;;;;16.33;8.10;;;;;;;;;;5078911;28;20408;-48
2023/01/20 11:25:20;;;;;;;12.40;8.23;;;;;;;;;;5091749;28;20276;-46
2023/01/20 11:27:46;;;;;;;11.68;6.95;;;;;;;;;;5074008;28;20174;-48
2023/01/20 11:30:33;;;;;;;11.90;7.60;;;;;;;;;;5091613;28;20228;-48
2023/01/20 11:33:15;;;;;;;11.10;7.90;;;;;;;;;;5051544;28;20182;-48
2023/01/20 11:35:55;;;;;;;17.75;7.30;;;;;;;;;;5052212;28;20653;-46
2023/01/20 11:38:23;;;;;;;9.52;7.13;;;;;;;;;;5090964;28;20185;-47
2023/01/20 11:40:53;;;;;;;10.77;7.47;;;;;;;;;;5089471;28;20641;-48
2023/01/20 11:43:36;;;;;;;9.60;6.53;;;;;;;;;;5071460;28;20186;-47
2023/01/20 11:46:10;;;;;;;8.73;6.38;;;;;;;;;;5081380;28;20169;-46
2023/01/20 11:48:36;;;;;;;14.20;6.50;;;;;;;;;;5082733;28;20741;-48
2023/01/20 11:51:02;;;;;;;8.60;6.43;;;;;;;;;;5088540;28;20208;-47
2023/01/20 11:53:32;;;;;;;7.70;5.47;;;;;;;;;;5078111;28;20419;-48
2023/01/20 11:56:01;;;;;;;11.88;6.63;;;;;;;;;;5093186;28;20185;-48
2023/01/20 11:58:28;;;;;;;12.75;5.50;;;;;;;;;;5075140;28;20499;-47
2023/01/20 12:01:07;;;;;;;7.88;6.25;;;;;;;;;;5093415;28;20244;-46
2023/01/20 12:03:52;;;;;;;8.00;6.60;;;;;;;;;;5094679;28;20192;-46
2023/01/20 12:06:24;;;;;;;8.02;5.95;;;;;;;;;;5090095;28;20170;-46
2023/01/20 12:08:53;;;;;;;10.93;7.28;;;;;;;;;;5091035;28;20193;-46
2023/01/20 12:11:31;;;;;;;6.88;5.60;;;;;;;;;;5089443;28;20194;-46
2023/01/20 12:16:42;;;;;;;8.93;5.20;;;;;;;;;;5087091;28;20719;-46
2023/01/20 12:19:14;;;;;;;7.30;5.28;;;;;;;;;;5083691;28;20205;-48
2023/01/20 12:21:45;;;;;;;14.82;6.55;;;;;;;;;;5085769;28;20170;-46
2023/01/20 12:24:11;;;;;;;8.52;6.10;;;;;;;;;;5080011;28;20273;-45
2023/01/20 12:26:37;;;;;;;11.07;6.75;;;;;;;;;;5076066;28;20167;-49
2023/01/20 12:29:03;;;;;;;8.32;6.13;;;;;;;;;;5095008;28;20201;-48
2023/01/20 12:31:30;;;;;;;10.77;6.53;;;;;;;;;;5090010;28;20174;-49
2023/01/20 12:34:03;;;;;;;8.60;5.37;;;;;;;;;;5090631;28;20433;-47
2023/01/20 12:36:29;;;;;;;7.68;6.18;;;;;;;;;;5090423;28;20546;-49
2023/01/20 12:39:14;;;;;;;8.40;6.13;;;;;;;;;;5085148;28;20213;-47
2023/01/20 12:41:40;;;;;;;10.03;6.50;;;;;;;;;;5088814;28;21027;-49
2023/01/20 12:44:17;;;;;;;6.80;5.60;;;;;;;;;;5081812;28;20410;-48
2023/01/20 12:46:53;;;;;;;9.07;6.23;;;;;;;;;;5088316;28;20401;-46
2023/01/20 12:49:25;;;;;;;10.80;8.40;;;;;;;;;;5074101;28;20443;-48
2023/01/20 12:51:57;;;;;;;8.80;6.47;;;;;;;;;;5075808;28;20401;-49
2023/01/20 12:54:26;;;;;;;9.27;6.93;;;;;;;;;;5094483;28;20414;-46
2023/01/20 12:56:58;;;;;;;9.17;7.07;;;;;;;;;;5087609;28;20421;-47
2023/01/20 12:59:42;;;;;;;8.53;6.23;;;;;;;;;;5091895;28;20469;-46
2023/01/20 13:02:27;;;;;;;5.57;4.87;;;;;;;;;;5085668;28;20440;-46
2023/01/20 13:05:08;;;;;;;11.83;5.50;;;;;;;;;;5090156;28;20797;-48
2023/01/20 13:07:42;;;;;;;7.60;5.30;;;;;;;;;;5082086;28;20404;-49
2023/01/20 13:10:16;;;;;;;6.97;5.20;;;;;;;;;;5087803;28;20448;-47
2023/01/20 13:12:44;;;;;;;9.27;6.63;;;;;;;;;;5093731;28;20552;-49
2023/01/20 13:15:17;;;;;;;8.77;6.50;;;;;;;;;;5093945;28;20173;-48
2023/01/20 13:18:01;;;;;;;10.15;7.03;;;;;;;;;;5089004;28;20178;-46
2023/01/20 13:20:28;;;;;;;8.25;5.78;;;;;;;;;;5093492;28;20213;-48
2023/01/20 13:22:55;;;;;;;11.60;5.50;;;;;;;;;;5087309;28;20188;-47
2023/01/20 13:25:21;;;;;;;9.60;7.00;;;;;;;;;;5093833;28;20633;-49
2023/01/20 13:27:47;;;;;;;9.50;6.53;;;;;;;;;;5081592;28;20622;-48
2023/01/20 13:30:52;;;;;;;9.65;6.18;;;;;;;;;;5091291;28;20296;-48
2023/01/20 13:33:33;;;;;;;14.25;6.13;;;;;;;;;;4995545;28;20188;-48
2023/01/20 13:36:00;;;;;;;6.90;6.20;;;;;;;;;;5085588;28;20266;-46
2023/01/20 13:38:29;;;;;;;11.70;10.38;;;;;;;;;;5092462;28;20181;-48
2023/01/20 13:41:02;;;;;;;11.65;6.50;;;;;;;;;;5093321;28;20169;-45
2023/01/20 13:43:31;;;;;;;7.82;6.55;;;;;;;;;;5087752;28;20178;-47
2023/01/20 13:46:03;;;;;;;10.50;6.25;;;;;;;;;;5093483;28;20173;-46
2023/01/20 13:48:30;;;;;;;8.65;6.28;;;;;;;;;;5082853;28;20174;-48
2023/01/20 13:51:15;;;;;;;12.18;7.43;;;;;;;;;;5093411;28;20178;-48
2023/01/20 13:53:42;;;;;;;6.57;5.20;;;;;;;;;;5077297;28;20672;-46
2023/01/20 13:56:25;;;;;;;8.45;5.95;;;;;;;;;;5092367;28;20197;-47
2023/01/20 13:58:51;;;;;;;11.73;7.05;;;;;;;;;;5072294;28;20623;-46
2023/01/20 14:01:17;;;;;;;9.53;6.80;;;;;;;;;;5092915;28;20183;-46
2023/01/20 14:03:43;;;;;;;8.83;6.07;;;;;;;;;;5090064;28;20907;-46
2023/01/20 14:06:10;;;;;;;7.37;6.47;;;;;;;;;;5092648;28;20520;-49
2023/01/20 14:08:39;;;;;;;9.10;6.67;;;;;;;;;;5086126;28;20437;-47
2023/01/20 14:11:08;;;;;;;8.43;6.15;;;;;;;;;;5092318;28;20783;-49
2023/01/20 14:13:34;;;;;;;10.85;6.18;;;;;;;;;;5082144;28;20239;-47
2023/01/20 14:16:00;;;;;;;9.18;6.70;;;;;;;;;;5092598;28;20213;-46
2023/01/20 14:18:26;;;;;;;11.50;7.10;;;;;;;;;;5077208;28;20193;-48
2023/01/20 14:20:57;;;;;;;9.82;6.85;;;;;;;;;;5092678;28;20597;-45
2023/01/20 14:23:25;;;;;;;10.00;6.35;;;;;;;;;;5089568;28;20197;-48
2023/01/20 14:26:02;;;;;;;8.65;6.68;;;;;;;;;;5092037;28;20584;-46
2023/01/20 14:28:28;;;;;;;8.57;6.30;;;;;;;;;;5090716;28;20205;-46
2023/01/20 14:31:09;;;;;;;8.50;6.35;;;;;;;;;;5092041;28;20181;-47
2023/01/20 14:33:42;;;;;;;7.88;6.18;;;;;;;;;;5085978;28;20540;-46
2023/01/20 14:36:08;;;;;;;13.48;6.35;;;;;;;;;;5092139;28;20193;-46
2023/01/20 14:38:34;;;;;;;8.13;5.95;;;;;;;;;;5080727;28;20330;-46
2023/01/20 14:41:00;;;;;;;11.57;6.38;;;;;;;;;;5092148;28;20721;-46
2023/01/20 14:43:29;;;;;;;9.27;6.47;;;;;;;;;;5078053;28;20257;-45
2023/01/20 14:45:55;;;;;;;10.95;6.93;;;;;;;;;;5090584;28;20407;-46
2023/01/20 14:48:23;;;;;;;9.52;6.85;;;;;;;;;;5078974;28;20262;-47
2023/01/20 14:50:52;;;;;;;10.40;6.78;;;;;;;;;;5084708;28;20227;-48